Wroclaw Copernicus Airport Wroclaw PL
ICAO: EPWR
IATA: WRO
Category: Large
Scheduled Services: Yes

Elevation: 404 ft
TransAlt. 6500 ft.

Airport Communications:
WROCLAW TWR:127.225

EPWR Zoom In..

If you have problems with the map follow the link
https://www.worldairports.se/pages/airport.php?
ICAO=EPWR

Runways:

(A) RW 11 length 8212 ft width 190 ft
---- / hdg 112

(B) RW 29 length 8212 ft width 190 ft
ILS 110.30 / hdg 292

Location; EPWR
Day. 22 / Time. 08.00 Zulu
* QNH: 1014
* Temperature: 08° c. 46.4°f.
* Wind from: 140° Speed 14 kn.
Dewpoint: 07° c.
Visibility: 10 km or more.
Clouds: Scattered 4300 ft.

EPWR 220800Z 14014KT 9999 SCT043 08/07 Q1014


Wind From 140°
Speed 14 kn.

 
 
jpsmedia worldairports.se 2019   terms of use